createdAt,value
2023-05-05T00:02:17.005Z,10.30
2023-05-05T00:04:44.359Z,10.30
2023-05-05T00:07:11.682Z,10.40
2023-05-05T00:09:39.050Z,10.30
2023-05-05T00:12:06.634Z,10.30
2023-05-05T00:14:34.063Z,10.10
2023-05-05T00:17:01.348Z,10.20
2023-05-05T00:19:28.834Z,10.10
2023-05-05T00:21:56.057Z,10.10
2023-05-05T00:24:23.815Z,10.10
2023-05-05T00:26:51.386Z,10.10
2023-05-05T00:29:18.745Z,10.00
2023-05-05T00:31:46.240Z,10.00
2023-05-05T00:34:13.614Z,10.00
2023-05-05T00:36:41.523Z,10.00
2023-05-05T00:39:09.082Z,10.00
2023-05-05T00:41:36.925Z,9.90
2023-05-05T00:44:04.720Z,9.90
2023-05-05T00:46:34.166Z,9.80
2023-05-05T00:49:01.912Z,9.90
2023-05-05T00:51:33.711Z,9.80
2023-05-05T00:54:01.938Z,9.80
2023-05-05T00:56:29.503Z,9.80
2023-05-05T00:58:57.117Z,9.80
2023-05-05T01:01:24.749Z,9.70
2023-05-05T01:03:53.128Z,9.60
2023-05-05T01:06:33.925Z,9.60
2023-05-05T01:09:11.155Z,9.60
2023-05-05T01:11:53.906Z,9.60
2023-05-05T01:14:32.539Z,9.50
2023-05-05T01:17:04.689Z,9.50
2023-05-05T01:19:44.666Z,9.50
2023-05-05T01:22:15.265Z,9.50
2023-05-05T01:25:26.371Z,9.40
2023-05-05T01:28:00.183Z,9.40
2023-05-05T01:30:49.545Z,9.40
2023-05-05T01:33:23.426Z,9.30
2023-05-05T01:35:56.918Z,9.30
2023-05-05T01:38:34.072Z,9.30
2023-05-05T01:41:24.400Z,9.30
2023-05-05T01:43:56.539Z,9.20
2023-05-05T01:46:25.816Z,9.20
2023-05-05T01:48:56.267Z,9.20
2023-05-05T01:51:27.331Z,9.10
2023-05-05T01:53:58.132Z,9.10
2023-05-05T01:56:26.985Z,9.10
2023-05-05T01:58:56.030Z,9.10
2023-05-05T02:01:26.706Z,9.10
2023-05-05T02:03:57.400Z,9.10
2023-05-05T02:06:26.959Z,9.00
2023-05-05T02:08:56.116Z,9.00
2023-05-05T02:11:24.360Z,8.90
2023-05-05T02:13:52.109Z,8.80
2023-05-05T02:16:21.788Z,8.90
2023-05-05T02:18:50.060Z,8.80
2023-05-05T02:21:21.100Z,8.80
2023-05-05T02:23:55.061Z,8.80
2023-05-05T02:26:24.674Z,8.80
2023-05-05T02:29:07.533Z,8.70
2023-05-05T02:31:47.643Z,8.70
2023-05-05T02:34:25.639Z,8.70
2023-05-05T02:36:57.856Z,8.70
2023-05-05T02:39:43.801Z,8.60
2023-05-05T02:42:18.550Z,8.50
2023-05-05T02:44:46.502Z,8.50
2023-05-05T02:47:14.565Z,8.50
2023-05-05T02:49:43.105Z,8.50
2023-05-05T02:52:10.511Z,8.50
2023-05-05T02:54:39.980Z,8.50
2023-05-05T02:57:19.194Z,8.50
2023-05-05T03:00:13.946Z,8.40
2023-05-05T03:02:55.524Z,8.50
2023-05-05T03:05:25.332Z,8.40
2023-05-05T03:08:03.535Z,8.40
2023-05-05T03:10:41.846Z,8.40
2023-05-05T03:13:11.944Z,8.30
2023-05-05T03:15:49.396Z,8.30
2023-05-05T03:18:22.620Z,8.30
2023-05-05T03:20:57.046Z,8.20
2023-05-05T03:23:24.568Z,8.20
2023-05-05T03:25:57.038Z,8.20
2023-05-05T03:28:34.281Z,8.20
2023-05-05T03:31:07.639Z,8.10
2023-05-05T03:33:37.784Z,8.10
2023-05-05T03:36:05.463Z,8.00
2023-05-05T03:38:33.405Z,8.00
2023-05-05T03:41:03.899Z,8.00
2023-05-05T03:43:31.987Z,8.00
2023-05-05T03:45:59.466Z,7.90
2023-05-05T03:48:27.446Z,7.90
2023-05-05T03:50:55.160Z,7.90
2023-05-05T03:53:24.384Z,7.90
2023-05-05T03:56:15.338Z,7.90
2023-05-05T03:58:42.697Z,7.90
2023-05-05T04:01:10.096Z,7.90
2023-05-05T04:03:37.637Z,7.80
2023-05-05T04:06:06.081Z,7.80
2023-05-05T04:08:33.955Z,7.70
2023-05-05T04:11:04.286Z,7.70
2023-05-05T04:13:33.621Z,7.70
2023-05-05T04:16:01.097Z,7.80
2023-05-05T04:18:53.939Z,7.80
2023-05-05T04:21:21.058Z,7.80
2023-05-05T04:24:13.762Z,7.70
2023-05-05T04:26:41.654Z,7.70
2023-05-05T04:29:10.188Z,7.70
2023-05-05T04:31:37.755Z,7.80
2023-05-05T04:34:05.219Z,7.80
2023-05-05T04:36:35.179Z,7.80
2023-05-05T04:39:02.562Z,7.80
2023-05-05T04:41:36.046Z,7.80
2023-05-05T04:44:03.546Z,7.80
2023-05-05T04:46:31.062Z,7.80
2023-05-05T04:48:59.540Z,7.90
2023-05-05T04:51:27.773Z,7.90
2023-05-05T04:53:55.973Z,7.90
2023-05-05T04:56:23.333Z,7.90
2023-05-05T04:58:50.833Z,7.90
2023-05-05T05:01:43.065Z,8.00
2023-05-05T05:04:13.924Z,8.10
2023-05-05T05:06:41.157Z,8.20
2023-05-05T05:09:08.541Z,8.20
2023-05-05T05:11:35.918Z,8.30
2023-05-05T05:14:03.139Z,8.40
2023-05-05T05:16:30.710Z,8.50
2023-05-05T05:19:01.813Z,8.60
2023-05-05T05:21:33.068Z,8.70
2023-05-05T05:24:00.561Z,8.70
2023-05-05T05:26:28.146Z,8.80
2023-05-05T05:28:55.821Z,8.90
2023-05-05T05:31:23.332Z,9.00
2023-05-05T05:33:51.199Z,9.20
2023-05-05T05:36:18.827Z,9.20
2023-05-05T05:38:46.347Z,9.30
2023-05-05T05:41:13.869Z,9.40
2023-05-05T05:43:41.742Z,9.40
2023-05-05T05:46:21.322Z,9.60
2023-05-05T05:48:48.656Z,9.80
2023-05-05T05:51:15.914Z,9.90
2023-05-05T05:53:43.486Z,10.00
2023-05-05T05:56:16.891Z,10.10
2023-05-05T05:58:45.315Z,10.20
2023-05-05T06:01:22.115Z,10.30
2023-05-05T06:03:49.693Z,10.40
2023-05-05T06:06:17.969Z,10.40
2023-05-05T06:08:45.200Z,10.60
2023-05-05T06:11:31.790Z,10.80
2023-05-05T06:14:00.294Z,11.00
2023-05-05T06:16:27.748Z,11.20
2023-05-05T06:18:55.640Z,11.40
2023-05-05T06:21:22.821Z,11.40
2023-05-05T06:23:50.098Z,11.60
2023-05-05T06:26:17.494Z,11.70
2023-05-05T06:28:44.954Z,11.80
2023-05-05T06:31:13.106Z,11.90
2023-05-05T06:33:40.388Z,12.00
2023-05-05T06:36:07.793Z,12.00
2023-05-05T06:38:35.228Z,12.10
2023-05-05T06:41:02.621Z,12.30
2023-05-05T06:43:29.903Z,12.40
2023-05-05T06:46:02.446Z,12.50
2023-05-05T06:48:29.579Z,12.70
2023-05-05T06:50:57.385Z,12.80
2023-05-05T06:53:24.596Z,12.90
2023-05-05T06:56:03.039Z,13.10
2023-05-05T06:58:30.193Z,13.20
2023-05-05T07:00:57.732Z,13.20
2023-05-05T07:03:25.387Z,13.40
2023-05-05T07:05:53.979Z,13.50
2023-05-05T07:08:21.123Z,13.60
2023-05-05T07:10:48.295Z,13.70
2023-05-05T07:13:18.517Z,13.70
2023-05-05T07:15:46.767Z,13.70
2023-05-05T07:18:14.808Z,13.80
2023-05-05T07:20:42.305Z,13.90
2023-05-05T07:23:09.865Z,14.10
2023-05-05T07:25:38.506Z,14.10
2023-05-05T07:28:05.927Z,14.20
2023-05-05T07:30:33.220Z,14.30
2023-05-05T07:33:03.323Z,14.30
2023-05-05T07:35:30.599Z,14.40
2023-05-05T07:37:57.848Z,14.50
2023-05-05T07:40:25.117Z,14.60
2023-05-05T07:42:57.791Z,14.70
2023-05-05T07:45:24.949Z,14.80
2023-05-05T07:47:52.162Z,15.00
2023-05-05T07:50:19.339Z,15.20
2023-05-05T07:52:51.837Z,15.20
2023-05-05T07:55:26.449Z,15.30
2023-05-05T07:57:53.662Z,15.30
2023-05-05T08:00:21.808Z,15.40
2023-05-05T08:03:01.436Z,15.60
2023-05-05T08:05:28.946Z,15.80
2023-05-05T08:08:34.750Z,16.00
2023-05-05T08:11:02.109Z,16.00
2023-05-05T08:13:30.445Z,16.10
2023-05-05T08:15:57.582Z,16.30
2023-05-05T08:18:24.863Z,16.40
2023-05-05T08:20:52.995Z,16.50
2023-05-05T08:23:20.293Z,16.60
2023-05-05T08:26:38.655Z,16.80
2023-05-05T08:29:06.277Z,16.80
2023-05-05T08:31:41.613Z,16.80
2023-05-05T08:34:31.773Z,16.90
2023-05-05T08:36:58.656Z,17.10
2023-05-05T08:39:25.490Z,17.10
2023-05-05T08:41:52.332Z,17.20
2023-05-05T08:44:19.188Z,17.30
2023-05-05T08:46:46.455Z,17.40
2023-05-05T08:49:16.400Z,17.50
2023-05-05T08:51:44.449Z,17.70
2023-05-05T08:54:19.084Z,17.80
2023-05-05T08:56:49.608Z,17.90
2023-05-05T08:59:17.587Z,17.90
2023-05-05T09:01:45.037Z,17.90
2023-05-05T09:04:11.953Z,18.00
2023-05-05T09:06:39.061Z,18.00
2023-05-05T09:09:06.920Z,18.20
2023-05-05T09:11:35.178Z,18.20
2023-05-05T09:14:02.013Z,18.30
2023-05-05T09:16:28.941Z,18.30
2023-05-05T09:19:05.990Z,18.50
2023-05-05T09:21:33.073Z,18.50
2023-05-05T09:24:13.106Z,18.60
2023-05-05T09:26:47.969Z,18.60
2023-05-05T09:29:19.540Z,18.70
2023-05-05T09:32:05.253Z,18.90
2023-05-05T09:34:35.196Z,18.90
2023-05-05T09:37:02.255Z,18.90
2023-05-05T09:39:29.127Z,18.90
2023-05-05T09:41:56.036Z,19.10
2023-05-05T09:44:37.054Z,19.10
2023-05-05T09:47:09.418Z,19.20
2023-05-05T09:49:39.253Z,19.30
2023-05-05T09:52:16.585Z,19.50
2023-05-05T09:54:44.464Z,19.60
2023-05-05T09:57:29.114Z,19.70
2023-05-05T10:00:04.281Z,19.80
2023-05-05T10:02:34.985Z,19.90
2023-05-05T10:05:18.716Z,20.00
2023-05-05T10:07:47.508Z,20.00
2023-05-05T10:10:16.561Z,20.00
2023-05-05T10:12:45.934Z,20.00
2023-05-05T10:15:15.704Z,20.20
2023-05-05T10:18:05.953Z,20.20
2023-05-05T10:20:38.642Z,20.40
2023-05-05T10:23:08.229Z,20.50
2023-05-05T10:25:45.662Z,20.60
2023-05-05T10:28:22.359Z,20.60
2023-05-05T10:30:52.787Z,20.70
2023-05-05T10:33:41.548Z,20.80
2023-05-05T10:36:08.684Z,20.80
2023-05-05T10:38:37.206Z,20.90
2023-05-05T10:41:04.535Z,20.90
2023-05-05T10:43:32.172Z,21.10
2023-05-05T10:45:59.804Z,20.90
2023-05-05T10:49:00.600Z,21.00
2023-05-05T10:51:46.610Z,21.10
2023-05-05T10:54:32.159Z,21.20
2023-05-05T10:57:04.912Z,21.30
2023-05-05T10:59:38.345Z,21.30
2023-05-05T11:02:28.307Z,21.40
2023-05-05T11:05:18.128Z,21.40
2023-05-05T11:07:46.509Z,21.50
2023-05-05T11:10:14.958Z,21.70
2023-05-05T11:12:53.960Z,21.70
2023-05-05T11:15:29.853Z,21.70
2023-05-05T11:18:03.140Z,21.90
2023-05-05T11:20:39.530Z,21.80
2023-05-05T11:23:06.612Z,21.90
2023-05-05T11:25:37.231Z,21.90
2023-05-05T11:28:18.057Z,22.10
2023-05-05T11:31:05.154Z,22.20
2023-05-05T11:33:33.673Z,22.20
2023-05-05T11:36:05.027Z,22.10
2023-05-05T11:38:39.425Z,22.10
2023-05-05T11:41:30.579Z,22.20
2023-05-05T11:44:09.876Z,22.40
2023-05-05T11:46:37.274Z,22.50
2023-05-05T11:49:04.235Z,22.50
2023-05-05T11:51:32.088Z,22.50
2023-05-05T11:53:59.323Z,22.50
2023-05-05T11:56:26.310Z,22.50
2023-05-05T11:59:07.875Z,22.60
2023-05-05T12:01:35.416Z,22.70
2023-05-05T12:04:02.471Z,22.90
2023-05-05T12:06:39.545Z,22.90
2023-05-05T12:09:20.162Z,22.90
2023-05-05T12:11:55.130Z,22.90
2023-05-05T12:14:23.356Z,22.90
2023-05-05T12:17:07.951Z,22.90
2023-05-05T12:19:53.685Z,22.90
2023-05-05T12:22:24.604Z,22.70
2023-05-05T12:25:03.264Z,22.80
2023-05-05T12:27:30.444Z,22.80
2023-05-05T12:30:20.823Z,22.90
2023-05-05T12:32:47.928Z,23.00
2023-05-05T12:35:16.169Z,23.10
2023-05-05T12:37:43.679Z,23.10
2023-05-05T12:40:46.144Z,23.20
2023-05-05T12:43:52.971Z,23.20
2023-05-05T12:46:20.188Z,23.30
2023-05-05T12:49:51.015Z,23.30
2023-05-05T12:52:18.627Z,23.30
2023-05-05T12:55:37.268Z,23.30
2023-05-05T12:58:04.674Z,23.30
2023-05-05T13:00:32.414Z,23.30
2023-05-05T13:02:59.759Z,23.30
2023-05-05T13:05:36.249Z,23.40
2023-05-05T13:08:03.451Z,23.50
2023-05-05T13:10:31.464Z,23.40
2023-05-05T13:12:58.814Z,23.40
2023-05-05T13:15:27.435Z,23.30
2023-05-05T13:18:01.603Z,23.30
2023-05-05T13:20:29.155Z,23.30
2023-05-05T13:22:56.317Z,23.30
2023-05-05T13:25:25.976Z,23.40
2023-05-05T13:27:53.824Z,23.50
2023-05-05T13:30:21.293Z,23.60
2023-05-05T13:32:48.512Z,23.50
2023-05-05T13:35:16.531Z,23.50
2023-05-05T13:37:44.538Z,23.50
2023-05-05T13:40:13.443Z,23.50
2023-05-05T13:42:40.632Z,23.50
2023-05-05T13:45:08.408Z,23.60
2023-05-05T13:47:35.924Z,23.60
2023-05-05T13:50:03.063Z,23.60
2023-05-05T13:52:31.790Z,23.60
2023-05-05T13:55:00.820Z,23.60
2023-05-05T13:57:28.346Z,23.60
2023-05-05T13:59:55.556Z,23.60
2023-05-05T14:02:22.918Z,23.70
2023-05-05T14:04:50.463Z,23.60
2023-05-05T14:07:23.944Z,23.60
2023-05-05T14:09:51.122Z,23.60
2023-05-05T14:12:18.928Z,23.80
2023-05-05T14:14:46.619Z,23.90
2023-05-05T14:17:13.740Z,23.90
2023-05-05T14:19:40.913Z,23.90
2023-05-05T14:22:08.032Z,23.80
2023-05-05T14:24:35.250Z,23.80
2023-05-05T14:27:04.468Z,23.90
2023-05-05T14:29:31.590Z,24.00
2023-05-05T14:31:58.808Z,23.80
2023-05-05T14:34:26.032Z,23.80
2023-05-05T14:36:53.218Z,23.70
2023-05-05T14:39:20.449Z,23.50
2023-05-05T14:41:47.684Z,23.50
2023-05-05T14:44:14.793Z,23.50
2023-05-05T14:46:43.561Z,23.50
2023-05-05T14:49:12.646Z,23.60
2023-05-05T14:51:39.872Z,23.70
2023-05-05T14:54:14.233Z,23.70
2023-05-05T14:56:47.868Z,23.70
2023-05-05T14:59:15.246Z,23.80
2023-05-05T15:01:42.445Z,23.80
2023-05-05T15:04:17.753Z,23.80
2023-05-05T15:06:44.880Z,23.70
2023-05-05T15:09:13.390Z,23.70
2023-05-05T15:11:45.073Z,23.70
2023-05-05T15:14:12.601Z,23.70
2023-05-05T15:16:39.946Z,23.60
2023-05-05T15:19:07.357Z,23.50
2023-05-05T15:21:34.618Z,23.50
2023-05-05T15:24:01.896Z,23.60
2023-05-05T15:26:29.024Z,23.50
2023-05-05T15:28:56.363Z,23.50
2023-05-05T15:31:23.508Z,23.60
2023-05-05T15:33:51.230Z,23.60
2023-05-05T15:36:22.761Z,23.60
2023-05-05T15:38:49.908Z,23.60
2023-05-05T15:41:17.215Z,23.70
2023-05-05T15:43:47.681Z,23.60
2023-05-05T15:46:15.106Z,23.50
2023-05-05T15:48:42.539Z,23.50
2023-05-05T15:51:12.426Z,23.50
2023-05-05T15:53:39.681Z,23.50
2023-05-05T15:56:06.885Z,23.50
2023-05-05T15:58:34.154Z,23.50
2023-05-05T16:01:01.234Z,23.40
2023-05-05T16:03:28.968Z,23.30
2023-05-05T16:05:56.237Z,23.30
2023-05-05T16:08:23.544Z,23.30
2023-05-05T16:10:50.749Z,23.30
2023-05-05T16:13:18.491Z,23.30
2023-05-05T16:15:46.379Z,23.20
2023-05-05T16:18:13.592Z,23.20
2023-05-05T16:20:41.311Z,23.20
2023-05-05T16:23:16.157Z,23.20
2023-05-05T16:25:43.259Z,23.00
2023-05-05T16:28:10.454Z,23.10
2023-05-05T16:30:39.865Z,23.10
2023-05-05T16:33:07.169Z,23.00
2023-05-05T16:35:34.495Z,23.00
2023-05-05T16:38:01.645Z,23.00
2023-05-05T16:40:38.372Z,22.90
2023-05-05T16:43:06.365Z,22.90
2023-05-05T16:45:36.714Z,22.80
2023-05-05T16:48:29.089Z,22.70
2023-05-05T16:50:57.739Z,22.80
2023-05-05T16:53:25.830Z,22.70
2023-05-05T16:55:54.198Z,22.70
2023-05-05T16:58:22.919Z,22.60
2023-05-05T17:00:51.204Z,22.50
2023-05-05T17:03:20.393Z,22.40
2023-05-05T17:05:50.167Z,22.30
2023-05-05T17:08:17.572Z,22.30
2023-05-05T17:10:46.317Z,22.30
2023-05-05T17:13:14.648Z,22.20
2023-05-05T17:15:43.632Z,22.20
2023-05-05T17:18:10.854Z,22.20
2023-05-05T17:20:38.102Z,22.10
2023-05-05T17:23:05.296Z,22.10
2023-05-05T17:25:32.560Z,22.10
2023-05-05T17:27:59.623Z,22.00
2023-05-05T17:30:27.088Z,22.00
2023-05-05T17:32:54.519Z,21.90
2023-05-05T17:35:21.885Z,21.80
2023-05-05T17:37:49.298Z,21.70
2023-05-05T17:40:16.388Z,21.60
2023-05-05T17:42:43.779Z,21.60
2023-05-05T17:45:12.211Z,21.60
2023-05-05T17:47:42.923Z,21.60
2023-05-05T17:50:11.273Z,21.50
2023-05-05T17:52:44.728Z,21.40
2023-05-05T17:55:12.713Z,21.40
2023-05-05T17:57:40.293Z,21.40
2023-05-05T18:00:09.232Z,21.40
2023-05-05T18:02:44.301Z,21.40
2023-05-05T18:05:12.003Z,21.30
2023-05-05T18:07:39.789Z,21.30
2023-05-05T18:10:08.573Z,21.20
2023-05-05T18:12:36.319Z,21.20
2023-05-05T18:15:05.850Z,21.10
2023-05-05T18:17:33.346Z,21.00
2023-05-05T18:20:07.132Z,20.90
2023-05-05T18:22:34.982Z,20.80
2023-05-05T18:25:02.905Z,20.60
2023-05-05T18:27:32.892Z,20.60
2023-05-05T18:30:01.247Z,20.50
2023-05-05T18:32:29.013Z,20.30
2023-05-05T18:34:57.172Z,20.20
2023-05-05T18:37:25.553Z,20.20
2023-05-05T18:39:53.518Z,20.00
2023-05-05T18:42:21.769Z,19.90
2023-05-05T18:44:49.819Z,19.80
2023-05-05T18:47:18.147Z,19.80
2023-05-05T18:49:46.434Z,19.70
2023-05-05T18:52:14.557Z,19.70
2023-05-05T18:54:42.975Z,19.60
2023-05-05T18:57:11.417Z,19.50
2023-05-05T18:59:39.250Z,19.40
2023-05-05T19:02:08.736Z,19.10
2023-05-05T19:04:38.752Z,19.10
2023-05-05T19:07:07.431Z,19.10
2023-05-05T19:09:38.432Z,18.90
2023-05-05T19:12:07.137Z,18.90
2023-05-05T19:14:35.330Z,18.70
2023-05-05T19:17:03.365Z,18.50
2023-05-05T19:19:31.722Z,18.50
2023-05-05T19:22:02.099Z,18.50
2023-05-05T19:24:31.731Z,18.50
2023-05-05T19:26:59.986Z,18.30
2023-05-05T19:29:28.100Z,18.30
2023-05-05T19:31:56.380Z,18.30
2023-05-05T19:34:24.702Z,18.00
2023-05-05T19:36:52.754Z,18.00
2023-05-05T19:39:21.205Z,18.00
2023-05-05T19:41:49.834Z,18.00
2023-05-05T19:48:44.409Z,17.70
2023-05-05T19:51:14.941Z,17.70
2023-05-05T19:53:43.577Z,17.70
2023-05-05T19:56:12.299Z,17.70
2023-05-05T19:59:01.264Z,17.60
2023-05-05T20:01:36.012Z,17.50
2023-05-05T20:04:04.589Z,17.50
2023-05-05T20:06:33.376Z,17.30
2023-05-05T20:09:06.136Z,17.30
2023-05-05T20:11:34.726Z,17.30
2023-05-05T20:14:02.996Z,17.20
2023-05-05T20:16:31.039Z,17.10
2023-05-05T20:18:59.346Z,17.10
2023-05-05T20:21:27.879Z,17.10
2023-05-05T20:23:56.274Z,17.10
2023-05-05T20:26:25.294Z,17.00
2023-05-05T20:28:53.466Z,16.80
2023-05-05T20:31:21.360Z,16.80
2023-05-05T20:33:49.434Z,16.80
2023-05-05T20:36:17.821Z,16.80
2023-05-05T20:38:46.438Z,16.60
2023-05-05T20:41:13.700Z,16.60
2023-05-05T20:43:42.362Z,16.60
2023-05-05T20:46:13.354Z,16.60
2023-05-05T20:48:42.887Z,16.30
2023-05-05T20:51:10.957Z,16.30
2023-05-05T20:53:38.266Z,16.40
2023-05-05T20:56:08.657Z,16.30
2023-05-05T20:58:36.400Z,16.40
2023-05-05T21:01:03.835Z,16.30
2023-05-05T21:03:31.034Z,16.30
2023-05-05T21:05:58.506Z,16.30
2023-05-05T21:08:25.789Z,16.20
2023-05-05T21:10:53.183Z,16.20
2023-05-05T21:13:20.431Z,16.10
2023-05-05T21:15:50.553Z,16.00
2023-05-05T21:18:17.738Z,15.90
2023-05-05T21:20:45.097Z,15.80
2023-05-05T21:23:12.153Z,15.80
2023-05-05T21:25:39.377Z,15.80
2023-05-05T21:28:06.647Z,15.80
2023-05-05T21:30:33.972Z,15.80
2023-05-05T21:33:01.219Z,15.70
2023-05-05T21:35:28.655Z,15.60
2023-05-05T21:37:55.881Z,15.60
2023-05-05T21:40:23.209Z,15.60
2023-05-05T21:42:50.405Z,15.60
2023-05-05T21:45:17.788Z,15.50
2023-05-05T21:47:44.963Z,15.40
2023-05-05T21:50:12.776Z,15.40
2023-05-05T21:52:40.039Z,15.40
2023-05-05T21:55:07.854Z,15.30
2023-05-05T22:00:42.609Z,15.30
2023-05-05T22:03:09.902Z,15.20
2023-05-05T22:05:37.373Z,15.20
2023-05-05T22:08:04.743Z,15.10
2023-05-05T22:10:33.157Z,15.10
2023-05-05T22:13:03.250Z,15.10
2023-05-05T22:15:38.877Z,15.10
2023-05-05T22:18:13.070Z,15.10
2023-05-05T22:20:40.698Z,15.00
2023-05-05T22:23:08.095Z,15.00
2023-05-05T22:25:35.764Z,14.90
2023-05-05T22:28:03.027Z,14.90
2023-05-05T22:30:30.306Z,14.90
2023-05-05T22:32:57.617Z,14.90
2023-05-05T22:35:25.162Z,14.80
2023-05-05T22:37:52.381Z,14.80
2023-05-05T22:40:19.803Z,14.70
2023-05-05T22:42:47.238Z,14.70
2023-05-05T22:45:14.591Z,14.50
2023-05-05T22:47:42.012Z,14.60
2023-05-05T22:50:09.812Z,14.60
2023-05-05T22:52:37.155Z,14.50
2023-05-05T22:55:04.619Z,14.40
2023-05-05T22:57:31.904Z,14.30
2023-05-05T22:59:59.111Z,14.30
2023-05-05T23:02:27.422Z,14.30
2023-05-05T23:05:19.695Z,14.30
2023-05-05T23:07:46.953Z,14.30
2023-05-05T23:10:14.193Z,14.20
2023-05-05T23:12:41.300Z,14.20
2023-05-05T23:15:10.054Z,14.20
2023-05-05T23:17:37.803Z,14.20
2023-05-05T23:20:06.162Z,14.00
2023-05-05T23:22:45.923Z,14.00
2023-05-05T23:25:13.322Z,14.00
2023-05-05T23:27:41.299Z,13.90
2023-05-05T23:30:33.725Z,13.90
2023-05-05T23:33:01.281Z,13.90
2023-05-05T23:35:28.990Z,13.90
2023-05-05T23:37:56.154Z,13.90
2023-05-05T23:40:23.637Z,13.90
2023-05-05T23:42:50.772Z,13.90
2023-05-05T23:45:19.334Z,13.90
2023-05-05T23:48:14.785Z,13.90
2023-05-05T23:50:42.569Z,13.70
2023-05-05T23:53:10.328Z,13.60
2023-05-05T23:55:37.631Z,13.50
2023-05-05T23:58:04.729Z,13.60
